Date,TemperatureHighF,TemperatureAvgF,TemperatureLowF,DewpointHighF,DewpointAvgF,DewpointLowF,HumidityHigh,HumidityAvg,HumidityLow,PressureMaxIn,PressureMinIn,WindSpeedMaxMPH,WindSpeedAvgMPH,GustSpeedMaxMPH,PrecipitationSumIn
2013-3-1,32.9,31.0,29.5,30.5,28.7,27.1,96,91,87,30.12,30.01,11,1,11,0.02
2013-3-2,29.4,27.4,25.3,27.4,22.8,19.9,92,83,71,30.17,30.10,18,1,18,0.01
2013-3-3,35.1,27.5,22.5,24.0,19.2,16.3,92,72,48,30.19,30.12,15,2,15,0.01
2013-3-4,38.6,31.6,22.8,26.6,20.8,17.0,81,65,48,30.19,30.00,12,2,12,0.00
2013-3-5,36.6,33.6,27.5,35.1,29.9,26.1,96,87,66,30.01,29.69,19,4,19,0.16
2013-3-6,30.7,28.2,26.2,29.7,27.2,24.9,96,96,96,30.35,29.80,12,1,12,0.00
2013-3-7,34.5,30.3,27.1,31.9,28.0,25.5,96,91,82,30.46,30.33,9,1,9,0.11
2013-3-8,42.9,34.1,24.7,29.4,25.8,22.9,94,73,50,30.54,30.40,10,2,10,0.06
2013-3-9,56.9,44.4,31.1,34.0,29.7,25.0,81,59,38,30.41,30.02,12,3,12,0.00
2013-3-10,67.2,58.9,52.4,41.2,35.9,32.2,53,43,28,30.02,29.75,22,3,22,0.02
2013-3-11,59.9,46.4,33.4,50.5,41.2,29.7,95,82,48,29.92,29.63,21,4,21,0.20
2013-3-12,45.9,36.1,31.3,31.2,27.1,22.8,93,71,44,30.11,29.92,19,4,19,0.00
2013-3-13,31.8,27.7,23.8,29.4,21.8,17.8,92,78,66,30.41,30.09,18,3,18,0.00
2013-3-14,45.1,30.8,18.5,30.4,20.8,14.8,93,70,32,30.43,30.24,15,1,15,0.01
2013-3-15,52.0,40.8,27.2,40.0,33.7,25.6,95,77,57,30.25,29.76,8,1,8,0.00
2013-3-16,56.0,46.3,35.7,49.8,40.2,30.8,88,79,69,30.07,29.64,15,2,15,0.03
2013-3-17,36.3,33.6,31.3,31.0,28.9,26.5,93,83,76,30.18,30.00,11,2,11,0.07
2013-3-18,43.5,37.0,32.3,42.2,35.4,30.6,97,94,89,30.00,29.66,12,3,16,0.90
2013-3-19,42.7,33.9,25.0,34.5,20.2,14.5,92,59,33,30.19,29.90,25,4,25,0.00
2013-3-20,34.1,28.8,24.1,20.7,15.0,8.4,75,56,42,30.18,30.07,22,3,22,0.00
2013-3-21,35.0,24.4,17.3,15.9,12.2,8.6,78,61,37,30.13,30.04,15,1,15,0.00
2013-3-22,47.4,32.5,21.3,18.1,13.3,10.6,70,48,24,30.15,30.04,10,1,10,0.00
2013-3-23,51.9,41.1,33.2,30.6,22.9,12.9,84,49,31,30.38,30.05,4,1,11,0.02
2013-3-24,37.5,33.4,28.5,31.3,28.3,23.3,95,82,58,30.18,29.73,6,3,16,0.00
2013-3-25,34.6,31.1,28.0,31.3,28.3,26.0,94,89,78,30.31,29.78,4,2,19,0.03
2013-3-26,41.2,34.4,29.6,30.1,26.8,22.9,91,75,50,30.57,30.31,4,2,14,0.37
2013-3-27,44.7,34.0,24.3,29.7,24.7,21.0,95,71,44,30.64,30.57,4,1,15,0.00
2013-3-28,51.0,36.3,22.8,29.1,24.9,20.8,93,67,39,30.68,30.59,2,1,14,0.00
2013-3-29,57.5,46.7,27.1,33.9,29.9,24.6,91,55,34,30.62,30.49,6,1,6,0.00
2013-3-30,60.7,46.1,29.3,38.6,32.9,27.3,93,64,35,30.53,30.19,8,1,8,0.00
2013-3-31,62.4,51.0,43.6,45.8,41.0,35.3,92,71,42,30.20,30.03,10,2,13,0.07